sensor_id;sensor_type;location;lat;lon;timestamp;pressure;altitude;pressure_sealevel;temperature;humidity
69879;BME280;57161;43.136;24.706;2023-07-30T04:23:46;98939.88;;;27.54;41.93
69879;BME280;57161;43.136;24.706;2023-07-30T04:26:11;98934.13;;;27.54;41.57
69879;BME280;57161;43.136;24.706;2023-07-30T04:28:39;98936.34;;;27.55;41.77
69879;BME280;57161;43.136;24.706;2023-07-30T04:31:04;98937.00;;;27.54;41.57
69879;BME280;57161;43.136;24.706;2023-07-30T04:33:30;98928.25;;;27.49;41.70
69879;BME280;57161;43.136;24.706;2023-07-30T04:35:55;98942.13;;;27.57;41.49
69879;BME280;57161;43.136;24.706;2023-07-30T04:38:21;98922.41;;;27.45;41.70
69879;BME280;57161;43.136;24.706;2023-07-30T04:40:46;98927.41;;;27.45;41.53
69879;BME280;57161;43.136;24.706;2023-07-30T04:43:12;98940.00;;;27.58;41.59
69879;BME280;57161;43.136;24.706;2023-07-30T04:45:37;98931.31;;;27.56;41.70
69879;BME280;57161;43.136;24.706;2023-07-30T04:48:03;98941.44;;;27.59;41.44
69879;BME280;57161;43.136;24.706;2023-07-30T04:50:29;98953.22;;;27.67;41.67
69879;BME280;57161;43.136;24.706;2023-07-30T04:52:54;98946.75;;;27.66;41.65
69879;BME280;57161;43.136;24.706;2023-07-30T04:55:20;98946.75;;;27.66;41.66
69879;BME280;57161;43.136;24.706;2023-07-30T04:57:45;98936.59;;;27.63;41.46
69879;BME280;57161;43.136;24.706;2023-07-30T05:00:11;98938.06;;;27.64;41.78
69879;BME280;57161;43.136;24.706;2023-07-30T05:02:37;98939.59;;;27.67;41.55
69879;BME280;57161;43.136;24.706;2023-07-30T05:05:02;98937.47;;;27.68;41.66
69879;BME280;57161;43.136;24.706;2023-07-30T05:07:28;98936.06;;;27.69;41.45
69879;BME280;57161;43.136;24.706;2023-07-30T05:09:53;98923.63;;;27.62;41.71
69879;BME280;57161;43.136;24.706;2023-07-30T05:12:19;98933.13;;;27.67;41.48
69879;BME280;57161;43.136;24.706;2023-07-30T05:14:44;98937.53;;;27.70;41.54
69879;BME280;57161;43.136;24.706;2023-07-30T05:17:10;98942.03;;;27.77;41.68
69879;BME280;57161;43.136;24.706;2023-07-30T05:19:35;98943.31;;;27.72;41.66
69879;BME280;57161;43.136;24.706;2023-07-30T05:22:01;98930.25;;;27.67;41.57
69879;BME280;57161;43.136;24.706;2023-07-30T05:24:27;98947.75;;;27.77;41.58
69879;BME280;57161;43.136;24.706;2023-07-30T05:26:53;98942.06;;;27.79;41.59
69879;BME280;57161;43.136;24.706;2023-07-30T05:29:18;98937.94;;;27.84;41.51
69879;BME280;57161;43.136;24.706;2023-07-30T05:31:44;98935.00;;;27.82;41.25
69879;BME280;57161;43.136;24.706;2023-07-30T05:34:09;98924.75;;;27.75;41.66
69879;BME280;57161;43.136;24.706;2023-07-30T05:36:35;98935.75;;;27.83;41.40
69879;BME280;57161;43.136;24.706;2023-07-30T05:39:00;98940.06;;;27.84;41.62
69879;BME280;57161;43.136;24.706;2023-07-30T05:41:26;98938.41;;;27.76;41.34
69879;BME280;57161;43.136;24.706;2023-07-30T05:43:51;98934.88;;;27.78;41.86
69879;BME280;57161;43.136;24.706;2023-07-30T05:46:17;98927.50;;;27.71;41.49
69879;BME280;57161;43.136;24.706;2023-07-30T05:48:42;98936.34;;;27.79;41.70
69879;BME280;57161;43.136;24.706;2023-07-30T05:51:08;98942.81;;;27.79;41.61
69879;BME280;57161;43.136;24.706;2023-07-30T05:53:33;98937.06;;;27.79;41.58
69879;BME280;57161;43.136;24.706;2023-07-30T05:55:59;98940.63;;;27.78;41.93
69879;BME280;57161;43.136;24.706;2023-07-30T05:58:24;98946.59;;;27.86;41.61
69879;BME280;57161;43.136;24.706;2023-07-30T06:00:50;98945.09;;;27.83;41.49
69879;BME280;57161;43.136;24.706;2023-07-30T06:03:15;98941.50;;;27.83;41.60
69879;BME280;57161;43.136;24.706;2023-07-30T06:05:41;98944.94;;;27.79;41.71
69879;BME280;57161;43.136;24.706;2023-07-30T06:08:07;98936.13;;;27.71;42.06
69879;BME280;57161;43.136;24.706;2023-07-30T06:10:36;98928.63;;;27.62;41.73
69879;BME280;57161;43.136;24.706;2023-07-30T06:13:03;98881.13;;;27.33;42.08
69879;BME280;57161;43.136;24.706;2023-07-30T06:15:29;98925.97;;;27.68;41.96
69879;BME280;57161;43.136;24.706;2023-07-30T06:17:55;98947.59;;;27.71;42.18
69879;BME280;57161;43.136;24.706;2023-07-30T06:20:21;98947.47;;;27.67;42.22
69879;BME280;57161;43.136;24.706;2023-07-30T06:22:46;98936.66;;;27.65;42.30
69879;BME280;57161;43.136;24.706;2023-07-30T06:25:12;98947.19;;;27.59;42.46
69879;BME280;57161;43.136;24.706;2023-07-30T06:27:37;98940.50;;;27.50;42.59
69879;BME280;57161;43.136;24.706;2023-07-30T06:30:03;98938.81;;;27.43;42.80
69879;BME280;57161;43.136;24.706;2023-07-30T06:32:29;98933.50;;;27.33;42.92
69879;BME280;57161;43.136;24.706;2023-07-30T06:34:55;98929.09;;;27.30;43.06
69879;BME280;57161;43.136;24.706;2023-07-30T06:37:20;98936.38;;;27.33;42.99
69879;BME280;57161;43.136;24.706;2023-07-30T06:39:46;98929.84;;;27.31;43.07
69879;BME280;57161;43.136;24.706;2023-07-30T06:42:11;98931.25;;;27.30;43.36
69879;BME280;57161;43.136;24.706;2023-07-30T06:44:37;98924.72;;;27.27;43.20
69879;BME280;57161;43.136;24.706;2023-07-30T06:47:02;98930.44;;;27.27;43.27
69879;BME280;57161;43.136;24.706;2023-07-30T06:49:28;98921.84;;;27.27;43.20
69879;BME280;57161;43.136;24.706;2023-07-30T06:51:53;98918.97;;;27.27;43.43
69879;BME280;57161;43.136;24.706;2023-07-30T06:54:20;98921.06;;;27.25;43.26
69879;BME280;57161;43.136;24.706;2023-07-30T06:56:45;98917.44;;;27.24;43.53
69879;BME280;57161;43.136;24.706;2023-07-30T06:59:11;98918.97;;;27.27;43.64
69879;BME280;57161;43.136;24.706;2023-07-30T07:01:36;98916.03;;;27.25;43.38
69879;BME280;57161;43.136;24.706;2023-07-30T07:04:02;98910.13;;;27.19;43.43
69879;BME280;57161;43.136;24.706;2023-07-30T07:06:27;98909.56;;;27.25;43.39
69879;BME280;57161;43.136;24.706;2023-07-30T07:08:53;98917.63;;;27.30;43.49
69879;BME280;57161;43.136;24.706;2023-07-30T07:11:18;98916.22;;;27.31;43.88
69879;BME280;57161;43.136;24.706;2023-07-30T07:13:44;98888.31;;;27.10;43.56
69879;BME280;57161;43.136;24.706;2023-07-30T07:16:10;98908.19;;;27.26;43.54
69879;BME280;57161;43.136;24.706;2023-07-30T07:18:35;98911.09;;;27.28;43.51
69879;BME280;57161;43.136;24.706;2023-07-30T07:21:00;98899.63;;;27.28;43.47
69879;BME280;57161;43.136;24.706;2023-07-30T07:23:26;98897.38;;;27.24;43.66
69879;BME280;57161;43.136;24.706;2023-07-30T07:25:52;98912.84;;;27.37;43.76
69879;BME280;57161;43.136;24.706;2023-07-30T07:28:17;98901.34;;;27.37;43.65
69879;BME280;57161;43.136;24.706;2023-07-30T07:30:44;98903.50;;;27.36;43.82
69879;BME280;57161;43.136;24.706;2023-07-30T07:33:10;98895.69;;;27.39;43.80
69879;BME280;57161;43.136;24.706;2023-07-30T07:35:39;98897.88;;;27.40;43.72
69879;BME280;57161;43.136;24.706;2023-07-30T07:38:04;98894.28;;;27.40;43.70
69879;BME280;57161;43.136;24.706;2023-07-30T07:40:30;98866.56;;;27.25;43.71
69879;BME280;57161;43.136;24.706;2023-07-30T07:42:55;98876.28;;;27.37;43.60
69879;BME280;57161;43.136;24.706;2023-07-30T07:45:21;98883.63;;;27.44;43.75
69879;BME280;57161;43.136;24.706;2023-07-30T07:47:46;98887.25;;;27.45;43.67
69879;BME280;57161;43.136;24.706;2023-07-30T07:50:12;98891.53;;;27.44;43.79
69879;BME280;57161;43.136;24.706;2023-07-30T07:52:37;98877.19;;;27.44;43.65
69879;BME280;57161;43.136;24.706;2023-07-30T07:55:04;98877.06;;;27.40;43.55
69879;BME280;57161;43.136;24.706;2023-07-30T07:57:30;98874.31;;;27.44;43.62
69879;BME280;57161;43.136;24.706;2023-07-30T07:59:56;98873.63;;;27.45;43.89
69879;BME280;57161;43.136;24.706;2023-07-30T08:02:22;98865.69;;;27.44;43.72
69879;BME280;57161;43.136;24.706;2023-07-30T08:04:48;98874.56;;;27.52;43.62
69879;BME280;57161;43.136;24.706;2023-07-30T08:07:13;98865.09;;;27.47;43.53
69879;BME280;57161;43.136;24.706;2023-07-30T08:09:38;98860.91;;;27.50;43.51
69879;BME280;57161;43.136;24.706;2023-07-30T08:12:04;98871.06;;;27.56;43.87
69879;BME280;57161;43.136;24.706;2023-07-30T08:14:30;98856.66;;;27.54;43.73
69879;BME280;57161;43.136;24.706;2023-07-30T08:16:56;98846.97;;;27.41;43.71
69879;BME280;57161;43.136;24.706;2023-07-30T08:19:22;98795.84;;;27.09;43.54
69879;BME280;57161;43.136;24.706;2023-07-30T08:21:47;98852.28;;;27.50;43.61
69879;BME280;57161;43.136;24.706;2023-07-30T08:24:13;98863.31;;;27.60;43.65
69879;BME280;57161;43.136;24.706;2023-07-30T08:26:38;98854.03;;;27.62;43.69
69879;BME280;57161;43.136;24.706;2023-07-30T08:29:04;98848.97;;;27.60;43.58
69879;BME280;57161;43.136;24.706;2023-07-30T08:31:31;98846.75;;;27.59;43.46
69879;BME280;57161;43.136;24.706;2023-07-30T08:33:56;98857.03;;;27.66;43.55
69879;BME280;57161;43.136;24.706;2023-07-30T08:36:22;98852.78;;;27.67;43.64
69879;BME280;57161;43.136;24.706;2023-07-30T08:38:48;98846.38;;;27.68;43.52
69879;BME280;57161;43.136;24.706;2023-07-30T08:41:14;98838.44;;;27.67;43.43
69879;BME280;57161;43.136;24.706;2023-07-30T08:43:40;98844.28;;;27.71;43.73
69879;BME280;57161;43.136;24.706;2023-07-30T08:46:05;98841.41;;;27.71;43.52
69879;BME280;57161;43.136;24.706;2023-07-30T08:48:31;98841.47;;;27.73;43.73
69879;BME280;57161;43.136;24.706;2023-07-30T08:50:57;98832.84;;;27.73;43.33
69879;BME280;57161;43.136;24.706;2023-07-30T08:53:26;98800.66;;;27.50;43.52
69879;BME280;57161;43.136;24.706;2023-07-30T08:55:55;98834.38;;;27.76;43.89
69879;BME280;57161;43.136;24.706;2023-07-30T08:58:22;98835.09;;;27.76;43.42
69879;BME280;57161;43.136;24.706;2023-07-30T09:00:49;98823.63;;;27.76;43.51
69879;BME280;57161;43.136;24.706;2023-07-30T09:03:17;98814.22;;;27.74;43.44
69879;BME280;57161;43.136;24.706;2023-07-30T09:05:43;98819.28;;;27.75;43.60
69879;BME280;57161;43.136;24.706;2023-07-30T09:08:09;98800.41;;;27.66;43.83
69879;BME280;57161;43.136;24.706;2023-07-30T09:10:35;98816.53;;;27.79;43.61
69879;BME280;57161;43.136;24.706;2023-07-30T09:13:01;98811.34;;;27.74;43.58
69879;BME280;57161;43.136;24.706;2023-07-30T09:15:35;98823.81;;;27.83;43.51
69879;BME280;57161;43.136;24.706;2023-07-30T09:18:03;98821.72;;;27.85;43.71
69879;BME280;57161;43.136;24.706;2023-07-30T09:20:37;98808.63;;;27.80;43.73
69879;BME280;57161;43.136;24.706;2023-07-30T09:23:02;98786.88;;;27.71;43.70
69879;BME280;57161;43.136;24.706;2023-07-30T09:25:28;98816.03;;;27.87;43.73
69879;BME280;57161;43.136;24.706;2023-07-30T09:27:54;98794.91;;;27.76;43.69
69879;BME280;57161;43.136;24.706;2023-07-30T09:30:23;98808.88;;;27.88;43.57
69879;BME280;57161;43.136;24.706;2023-07-30T09:32:54;98800.94;;;27.87;43.46
69879;BME280;57161;43.136;24.706;2023-07-30T09:35:21;98796.59;;;27.86;43.67
69879;BME280;57161;43.136;24.706;2023-07-30T09:37:47;98799.63;;;27.92;43.63
69879;BME280;57161;43.136;24.706;2023-07-30T09:40:15;98791.75;;;27.92;43.49
69879;BME280;57161;43.136;24.706;2023-07-30T09:42:44;98796.81;;;27.94;43.44
69879;BME280;57161;43.136;24.706;2023-07-30T09:45:22;98796.13;;;27.95;43.40
69879;BME280;57161;43.136;24.706;2023-07-30T09:47:50;98783.88;;;27.93;43.60
69879;BME280;57161;43.136;24.706;2023-07-30T09:50:16;98778.19;;;27.95;43.61
69879;BME280;57161;43.136;24.706;2023-07-30T09:52:42;98776.00;;;27.93;43.71
69879;BME280;57161;43.136;24.706;2023-07-30T09:55:09;98784.03;;;27.99;43.59
69879;BME280;57161;43.136;24.706;2023-07-30T09:57:35;98773.13;;;27.93;43.55
69879;BME280;57161;43.136;24.706;2023-07-30T10:00:03;98768.94;;;27.98;43.35
69879;BME280;57161;43.136;24.706;2023-07-30T10:02:29;98778.34;;;28.01;43.72
69879;BME280;57161;43.136;24.706;2023-07-30T10:04:59;98764.03;;;28.03;43.53
69879;BME280;57161;43.136;24.706;2023-07-30T10:07:27;98759.00;;;28.01;43.43
69879;BME280;57161;43.136;24.706;2023-07-30T10:09:58;98759.09;;;28.05;43.42
69879;BME280;57161;43.136;24.706;2023-07-30T10:12:28;98735.84;;;27.95;43.69
69879;BME280;57161;43.136;24.706;2023-07-30T10:14:56;98746.19;;;28.06;43.78
69879;BME280;57161;43.136;24.706;2023-07-30T10:17:21;98734.44;;;27.96;43.56
69879;BME280;57161;43.136;24.706;2023-07-30T10:19:48;98730.09;;;27.95;43.49
69879;BME280;57161;43.136;24.706;2023-07-30T10:24:58;98715.94;;;28.01;43.60
69879;BME280;57161;43.136;24.706;2023-07-30T10:27:26;98731.19;;;28.10;43.68
69879;BME280;57161;43.136;24.706;2023-07-30T10:30:08;98729.81;;;28.13;43.77
69879;BME280;57161;43.136;24.706;2023-07-30T10:33:20;98734.16;;;28.14;43.43
69879;BME280;57161;43.136;24.706;2023-07-30T10:35:42;98727.75;;;28.16;43.60
69879;BME280;57161;43.136;24.706;2023-07-30T10:38:19;98719.72;;;28.10;43.58
69879;BME280;57161;43.136;24.706;2023-07-30T10:41:04;98728.53;;;28.18;43.64
69879;BME280;57161;43.136;24.706;2023-07-30T10:43:38;98733.56;;;28.18;43.68
69879;BME280;57161;43.136;24.706;2023-07-30T10:46:04;98722.75;;;28.16;43.65
69879;BME280;57161;43.136;24.706;2023-07-30T10:48:31;98724.25;;;28.19;43.76
69879;BME280;57161;43.136;24.706;2023-07-30T10:51:00;98725.03;;;28.22;43.60
69879;BME280;57161;43.136;24.706;2023-07-30T10:53:25;98698.09;;;28.07;43.83
69879;BME280;57161;43.136;24.706;2023-07-30T10:55:52;98718.59;;;28.23;43.42
69879;BME280;57161;43.136;24.706;2023-07-30T10:58:18;98710.72;;;28.24;43.46
69879;BME280;57161;43.136;24.706;2023-07-30T11:00:44;98709.25;;;28.23;43.72
69879;BME280;57161;43.136;24.706;2023-07-30T11:03:09;98705.03;;;28.26;43.76
69879;BME280;57161;43.136;24.706;2023-07-30T11:05:38;98708.72;;;28.30;43.63
69879;BME280;57161;43.136;24.706;2023-07-30T11:08:04;98698.53;;;28.25;43.66
69879;BME280;57161;43.136;24.706;2023-07-30T11:10:29;98700.81;;;28.29;43.33
69879;BME280;57161;43.136;24.706;2023-07-30T11:12:57;98701.59;;;28.31;43.60
69879;BME280;57161;43.136;24.706;2023-07-30T11:15:22;98696.66;;;28.36;43.59
69879;BME280;57161;43.136;24.706;2023-07-30T11:17:48;98687.25;;;28.31;43.61
69879;BME280;57161;43.136;24.706;2023-07-30T11:20:25;98678.75;;;28.37;43.44
69879;BME280;57161;43.136;24.706;2023-07-30T11:22:54;98685.19;;;28.36;43.43
69879;BME280;57161;43.136;24.706;2023-07-30T11:25:19;98687.97;;;28.32;43.41
69879;BME280;57161;43.136;24.706;2023-07-30T11:27:49;98692.50;;;28.43;43.36
69879;BME280;57161;43.136;24.706;2023-07-30T11:30:15;98683.22;;;28.45;43.51
69879;BME280;57161;43.136;24.706;2023-07-30T11:32:44;98665.03;;;28.34;43.27
69879;BME280;57161;43.136;24.706;2023-07-30T11:35:14;98663.03;;;28.40;43.49
69879;BME280;57161;43.136;24.706;2023-07-30T11:37:41;98685.50;;;28.50;43.32
69879;BME280;57161;43.136;24.706;2023-07-30T11:40:09;98672.50;;;28.47;43.26
69879;BME280;57161;43.136;24.706;2023-07-30T11:42:35;98674.78;;;28.53;43.55
69879;BME280;57161;43.136;24.706;2023-07-30T11:45:20;98654.41;;;28.40;43.40
69879;BME280;57161;43.136;24.706;2023-07-30T11:47:47;98656.09;;;28.52;43.61
69879;BME280;57161;43.136;24.706;2023-07-30T11:50:12;98665.53;;;28.56;43.50
69879;BME280;57161;43.136;24.706;2023-07-30T11:52:58;98669.94;;;28.61;43.25
69879;BME280;57161;43.136;24.706;2023-07-30T11:55:23;98654.22;;;28.64;43.56
69879;BME280;57161;43.136;24.706;2023-07-30T11:58:02;98655.59;;;28.63;43.68
69879;BME280;57161;43.136;24.706;2023-07-30T12:00:28;98655.75;;;28.69;43.57
69879;BME280;57161;43.136;24.706;2023-07-30T12:02:53;98639.75;;;28.60;43.40
69879;BME280;57161;43.136;24.706;2023-07-30T12:05:19;98654.50;;;28.79;43.56
69879;BME280;57161;43.136;24.706;2023-07-30T12:07:56;98641.66;;;28.82;43.66
69879;BME280;57161;43.136;24.706;2023-07-30T12:10:22;98627.19;;;28.80;43.66
69879;BME280;57161;43.136;24.706;2023-07-30T12:12:52;98635.34;;;28.89;43.78
69879;BME280;57161;43.136;24.706;2023-07-30T12:15:18;98628.88;;;28.89;43.57
69879;BME280;57161;43.136;24.706;2023-07-30T12:17:44;98633.38;;;28.98;43.85
69879;BME280;57161;43.136;24.706;2023-07-30T12:20:11;98622.63;;;29.01;43.46
69879;BME280;57161;43.136;24.706;2023-07-30T12:22:36;98616.19;;;29.02;43.84
69879;BME280;57161;43.136;24.706;2023-07-30T12:25:04;98608.25;;;29.01;43.63
69879;BME280;57161;43.136;24.706;2023-07-30T12:27:29;98607.66;;;29.08;43.96
69879;BME280;57161;43.136;24.706;2023-07-30T12:29:55;98608.44;;;29.11;43.80
69879;BME280;57161;43.136;24.706;2023-07-30T12:32:20;98589.66;;;29.06;43.71
69879;BME280;57161;43.136;24.706;2023-07-30T12:34:46;98610.06;;;29.20;44.00
69879;BME280;57161;43.136;24.706;2023-07-30T12:37:11;98605.78;;;29.23;43.81
69879;BME280;57161;43.136;24.706;2023-07-30T12:39:37;98600.16;;;29.29;43.99
69879;BME280;57161;43.136;24.706;2023-07-30T12:42:02;98601.66;;;29.32;43.78
69879;BME280;57161;43.136;24.706;2023-07-30T12:44:28;98580.63;;;29.23;43.88
69879;BME280;57161;43.136;24.706;2023-07-30T12:46:53;98587.34;;;29.36;43.88
69879;BME280;57161;43.136;24.706;2023-07-30T12:49:19;98591.06;;;29.45;44.20
69879;BME280;57161;43.136;24.706;2023-07-30T12:51:44;98586.72;;;29.44;44.15
69879;BME280;57161;43.136;24.706;2023-07-30T12:54:10;98583.19;;;29.45;44.22
69879;BME280;57161;43.136;24.706;2023-07-30T12:56:36;98592.72;;;29.56;44.12
69879;BME280;57161;43.136;24.706;2023-07-30T12:59:01;98579.72;;;29.53;44.19
69879;BME280;57161;43.136;24.706;2023-07-30T13:01:26;98569.69;;;29.54;44.25
69879;BME280;57161;43.136;24.706;2023-07-30T13:03:52;98578.44;;;29.62;44.25
69879;BME280;57161;43.136;24.706;2023-07-30T13:06:20;98577.09;;;29.67;44.14
69879;BME280;57161;43.136;24.706;2023-07-30T13:08:46;98578.56;;;29.70;44.08
69879;BME280;57161;43.136;24.706;2023-07-30T13:11:12;98561.94;;;29.65;44.20
69879;BME280;57161;43.136;24.706;2023-07-30T13:13:37;98562.75;;;29.71;44.29
69879;BME280;57161;43.136;24.706;2023-07-30T13:16:03;98565.72;;;29.77;44.53
69879;BME280;57161;43.136;24.706;2023-07-30T13:18:29;98558.66;;;29.84;44.24
69879;BME280;57161;43.136;24.706;2023-07-30T13:20:54;98558.72;;;29.91;44.57
69879;BME280;57161;43.136;24.706;2023-07-30T13:23:20;98546.44;;;29.86;44.55
69879;BME280;57161;43.136;24.706;2023-07-30T13:25:46;98551.63;;;29.96;44.79
69879;BME280;57161;43.136;24.706;2023-07-30T13:28:11;98553.19;;;30.05;44.62
69879;BME280;57161;43.136;24.706;2023-07-30T13:30:37;98540.09;;;29.96;44.76
69879;BME280;57161;43.136;24.706;2023-07-30T13:33:03;98555.50;;;30.14;44.90
69879;BME280;57161;43.136;24.706;2023-07-30T13:35:28;98556.28;;;30.19;44.68
69879;BME280;57161;43.136;24.706;2023-07-30T13:37:54;98547.69;;;30.23;44.63
69879;BME280;57161;43.136;24.706;2023-07-30T13:40:19;98550.56;;;30.23;44.74
69879;BME280;57161;43.136;24.706;2023-07-30T13:42:45;98542.72;;;30.28;44.77
69879;BME280;57161;43.136;24.706;2023-07-30T13:45:11;98539.22;;;30.35;44.83
69879;BME280;57161;43.136;24.706;2023-07-30T13:47:37;98518.16;;;30.23;44.87
69879;BME280;57161;43.136;24.706;2023-07-30T13:50:02;98530.53;;;30.33;44.88
69879;BME280;57161;43.136;24.706;2023-07-30T13:52:28;98527.69;;;30.35;44.85
69879;BME280;57161;43.136;24.706;2023-07-30T13:54:53;98539.38;;;30.47;44.73
69879;BME280;57161;43.136;24.706;2023-07-30T13:57:23;98532.19;;;30.51;44.97
69879;BME280;57161;43.136;24.706;2023-07-30T13:59:52;98527.19;;;30.55;44.81
69879;BME280;57161;43.136;24.706;2023-07-30T14:02:17;98535.28;;;30.65;45.08
69879;BME280;57161;43.136;24.706;2023-07-30T14:04:43;98507.69;;;30.52;44.67
69879;BME280;57161;43.136;24.706;2023-07-30T14:07:08;98528.19;;;30.76;45.09
69879;BME280;57161;43.136;24.706;2023-07-30T14:09:34;98521.63;;;30.71;44.92
69879;BME280;57161;43.136;24.706;2023-07-30T14:12:02;98523.94;;;30.85;44.90
69879;BME280;57161;43.136;24.706;2023-07-30T14:14:28;98511.66;;;30.81;44.90
69879;BME280;57161;43.136;24.706;2023-07-30T14:16:54;98517.56;;;30.95;45.08
69879;BME280;57161;43.136;24.706;2023-07-30T14:19:20;98522.66;;;31.00;44.82
69879;BME280;57161;43.136;24.706;2023-07-30T14:21:46;98519.09;;;31.06;44.96
69879;BME280;57161;43.136;24.706;2023-07-30T14:24:11;98486.56;;;30.93;44.98
69879;BME280;57161;43.136;24.706;2023-07-30T14:26:37;98495.34;;;31.10;45.23
69879;BME280;57161;43.136;24.706;2023-07-30T14:29:02;98499.78;;;31.21;45.02
69879;BME280;57161;43.136;24.706;2023-07-30T14:31:28;98501.31;;;31.26;45.26
69879;BME280;57161;43.136;24.706;2023-07-30T14:33:53;98492.69;;;31.32;45.23
69879;BME280;57161;43.136;24.706;2023-07-30T14:36:19;98492.69;;;31.32;44.84
69879;BME280;57161;43.136;24.706;2023-07-30T14:38:44;98492.72;;;31.40;45.06
69879;BME280;57161;43.136;24.706;2023-07-30T14:41:11;98485.50;;;31.39;44.80
69879;BME280;57161;43.136;24.706;2023-07-30T14:43:37;98491.34;;;31.45;44.77
69879;BME280;57161;43.136;24.706;2023-07-30T14:46:02;98473.94;;;31.35;44.56
69879;BME280;57161;43.136;24.706;2023-07-30T14:48:28;98475.41;;;31.40;44.66
69879;BME280;57161;43.136;24.706;2023-07-30T14:50:54;98473.28;;;31.43;44.79
69879;BME280;57161;43.136;24.706;2023-07-30T14:53:20;98485.63;;;31.55;44.79
69879;BME280;57161;43.136;24.706;2023-07-30T14:55:45;98484.22;;;31.58;44.72
69879;BME280;57161;43.136;24.706;2023-07-30T14:58:11;98484.97;;;31.63;44.98
69879;BME280;57161;43.136;24.706;2023-07-30T15:00:37;98483.53;;;31.66;44.87
69879;BME280;57161;43.136;24.706;2023-07-30T15:03:03;98466.25;;;31.70;44.61
69879;BME280;57161;43.136;24.706;2023-07-30T15:05:30;98478.50;;;31.71;44.85
69879;BME280;57161;43.136;24.706;2023-07-30T15:07:56;98459.72;;;31.65;44.48
69879;BME280;57161;43.136;24.706;2023-07-30T15:10:21;98475.72;;;31.79;44.45
69879;BME280;57161;43.136;24.706;2023-07-30T15:12:47;98458.31;;;31.71;44.18
69879;BME280;57161;43.136;24.706;2023-07-30T15:15:13;98473.56;;;31.83;44.21
69879;BME280;57161;43.136;24.706;2023-07-30T15:17:38;98454.03;;;31.76;44.36
69879;BME280;57161;43.136;24.706;2023-07-30T15:20:04;98455.50;;;31.79;44.36
69879;BME280;57161;43.136;24.706;2023-07-30T15:22:30;98457.69;;;31.84;44.10
69879;BME280;57161;43.136;24.706;2023-07-30T15:24:56;98456.97;;;31.84;44.20
69879;BME280;57161;43.136;24.706;2023-07-30T15:27:21;98459.09;;;31.77;43.98
69879;BME280;57161;43.136;24.706;2023-07-30T15:29:47;98463.47;;;31.82;44.30
69879;BME280;57161;43.136;24.706;2023-07-30T15:32:13;98459.13;;;31.79;44.22
69879;BME280;57161;43.136;24.706;2023-07-30T15:34:38;98464.19;;;31.83;44.09
69879;BME280;57161;43.136;24.706;2023-07-30T15:37:04;98452.59;;;31.77;44.02
69879;BME280;57161;43.136;24.706;2023-07-30T15:39:29;98456.22;;;31.79;44.09
69879;BME280;57161;43.136;24.706;2023-07-30T15:42:00;98460.56;;;31.80;43.97
69879;BME280;57161;43.136;24.706;2023-07-30T15:44:26;98463.44;;;31.78;43.95
69879;BME280;57161;43.136;24.706;2023-07-30T15:46:51;98463.44;;;31.76;44.08
69879;BME280;57161;43.136;24.706;2023-07-30T15:49:17;98437.34;;;31.64;43.97
69879;BME280;57161;43.136;24.706;2023-07-30T15:51:42;98451.88;;;31.74;43.98
69879;BME280;57161;43.136;24.706;2023-07-30T15:54:08;98450.34;;;31.67;44.09
69879;BME280;57161;43.136;24.706;2023-07-30T15:56:33;98453.97;;;31.72;44.00
69879;BME280;57161;43.136;24.706;2023-07-30T15:58:59;98447.47;;;31.67;43.98
69879;BME280;57161;43.136;24.706;2023-07-30T16:01:24;98451.06;;;31.70;43.72
69879;BME280;57161;43.136;24.706;2023-07-30T16:03:50;98454.66;;;31.66;44.06
69879;BME280;57161;43.136;24.706;2023-07-30T16:06:15;98450.34;;;31.67;43.68
69879;BME280;57161;43.136;24.706;2023-07-30T16:08:41;98440.22;;;31.60;43.82
69879;BME280;57161;43.136;24.706;2023-07-30T16:11:08;98437.31;;;31.60;43.72
69879;BME280;57161;43.136;24.706;2023-07-30T16:13:34;98448.16;;;31.59;43.66
69879;BME280;57161;43.136;24.706;2023-07-30T16:16:13;98446.72;;;31.62;43.74
69879;BME280;57161;43.136;24.706;2023-07-30T16:18:39;98433.00;;;31.61;43.65
69879;BME280;57161;43.136;24.706;2023-07-30T16:21:07;98433.66;;;31.55;44.01
69879;BME280;57161;43.136;24.706;2023-07-30T16:23:32;98440.94;;;31.58;43.62
69879;BME280;57161;43.136;24.706;2023-07-30T16:25:58;98427.88;;;31.49;43.79
69879;BME280;57161;43.136;24.706;2023-07-30T16:28:24;98420.63;;;31.46;43.71
69879;BME280;57161;43.136;24.706;2023-07-30T16:30:49;98430.78;;;31.55;43.98
69879;BME280;57161;43.136;24.706;2023-07-30T16:33:16;98435.09;;;31.54;43.72
69879;BME280;57161;43.136;24.706;2023-07-30T16:35:41;98430.78;;;31.53;43.94
69879;BME280;57161;43.136;24.706;2023-07-30T16:38:07;98427.88;;;31.51;43.71
69879;BME280;57161;43.136;24.706;2023-07-30T16:40:33;98423.53;;;31.46;43.90
69879;BME280;57161;43.136;24.706;2023-07-30T16:42:58;98407.63;;;31.41;43.90
69879;BME280;57161;43.136;24.706;2023-07-30T16:45:24;98419.19;;;31.43;43.80
69879;BME280;57161;43.136;24.706;2023-07-30T16:47:49;98397.50;;;31.38;43.71
69879;BME280;57161;43.136;24.706;2023-07-30T16:50:21;98417.03;;;31.48;43.86
69879;BME280;57161;43.136;24.706;2023-07-30T16:52:47;98422.09;;;31.47;43.98
69879;BME280;57161;43.136;24.706;2023-07-30T16:55:13;98418.47;;;31.47;43.74
69879;BME280;57161;43.136;24.706;2023-07-30T16:57:39;98421.34;;;31.45;43.70
69879;BME280;57161;43.136;24.706;2023-07-30T17:00:06;98415.56;;;31.41;43.66
69879;BME280;57161;43.136;24.706;2023-07-30T17:02:32;98431.47;;;31.46;43.85
69879;BME280;57161;43.136;24.706;2023-07-30T17:04:58;98416.97;;;31.40;43.45
69879;BME280;57161;43.136;24.706;2023-07-30T17:07:24;98422.78;;;31.44;43.79
69879;BME280;57161;43.136;24.706;2023-07-30T17:09:49;98432.16;;;31.42;43.80
69879;BME280;57161;43.136;24.706;2023-07-30T17:12:15;98443.72;;;31.42;43.84